sensor_id;sensor_type;location;lat;lon;timestamp;temperature;humidity
19966;DHT22;10144;50.874;4.762;2023-03-01T00:00:04;0.00;99.90
19966;DHT22;10144;50.874;4.762;2023-03-01T00:02:33;0.00;99.90
19966;DHT22;10144;50.874;4.762;2023-03-01T00:05:10;0.00;99.90
19966;DHT22;10144;50.874;4.762;2023-03-01T00:07:39;0.00;99.90
19966;DHT22;10144;50.874;4.762;2023-03-01T00:10:08;-0.10;99.90
19966;DHT22;10144;50.874;4.762;2023-03-01T00:12:37;0.00;99.90
19966;DHT22;10144;50.874;4.762;2023-03-01T00:15:06;0.00;99.90
19966;DHT22;10144;50.874;4.762;2023-03-01T00:17:35;0.00;99.90
19966;DHT22;10144;50.874;4.762;2023-03-01T00:20:10;0.00;99.90
19966;DHT22;10144;50.874;4.762;2023-03-01T00:22:39;0.00;99.90
19966;DHT22;10144;50.874;4.762;2023-03-01T00:25:08;-0.10;99.90
19966;DHT22;10144;50.874;4.762;2023-03-01T00:27:40;0.00;99.90
19966;DHT22;10144;50.874;4.762;2023-03-01T00:30:21;0.00;99.90
19966;DHT22;10144;50.874;4.762;2023-03-01T00:32:53;0.00;99.90
19966;DHT22;10144;50.874;4.762;2023-03-01T00:35:21;0.00;99.90
19966;DHT22;10144;50.874;4.762;2023-03-01T00:37:51;0.00;99.90
19966;DHT22;10144;50.874;4.762;2023-03-01T00:40:30;0.10;99.90
19966;DHT22;10144;50.874;4.762;2023-03-01T00:43:03;0.00;99.90
19966;DHT22;10144;50.874;4.762;2023-03-01T00:45:35;0.00;99.90
19966;DHT22;10144;50.874;4.762;2023-03-01T00:48:01;0.00;99.90
19966;DHT22;10144;50.874;4.762;2023-03-01T00:50:29;0.00;99.90
19966;DHT22;10144;50.874;4.762;2023-03-01T00:52:58;-0.10;99.90
19966;DHT22;10144;50.874;4.762;2023-03-01T00:55:29;-0.10;99.90
19966;DHT22;10144;50.874;4.762;2023-03-01T00:57:55;-0.20;99.90
19966;DHT22;10144;50.874;4.762;2023-03-01T01:00:21;-0.20;99.90
19966;DHT22;10144;50.874;4.762;2023-03-01T01:02:50;-0.30;99.90
19966;DHT22;10144;50.874;4.762;2023-03-01T01:05:19;-0.40;99.90
19966;DHT22;10144;50.874;4.762;2023-03-01T01:07:49;-0.40;99.90
19966;DHT22;10144;50.874;4.762;2023-03-01T01:10:22;-0.40;99.90
19966;DHT22;10144;50.874;4.762;2023-03-01T01:12:51;-0.30;99.90
19966;DHT22;10144;50.874;4.762;2023-03-01T01:15:23;-0.30;99.90
19966;DHT22;10144;50.874;4.762;2023-03-01T01:17:51;-0.30;99.90
19966;DHT22;10144;50.874;4.762;2023-03-01T01:20:33;-0.20;99.90
19966;DHT22;10144;50.874;4.762;2023-03-01T01:23:00;-0.20;99.90
19966;DHT22;10144;50.874;4.762;2023-03-01T01:25:29;-0.30;99.90
19966;DHT22;10144;50.874;4.762;2023-03-01T01:28:06;-0.40;99.90
19966;DHT22;10144;50.874;4.762;2023-03-01T01:30:33;-0.40;99.90
19966;DHT22;10144;50.874;4.762;2023-03-01T01:33:02;-0.50;99.90
19966;DHT22;10144;50.874;4.762;2023-03-01T01:35:31;-0.60;99.90
19966;DHT22;10144;50.874;4.762;2023-03-01T01:38:00;-0.60;99.90
19966;DHT22;10144;50.874;4.762;2023-03-01T01:40:30;-0.60;99.90
19966;DHT22;10144;50.874;4.762;2023-03-01T01:45:49;-0.70;99.90
19966;DHT22;10144;50.874;4.762;2023-03-01T01:48:20;-0.70;99.90
19966;DHT22;10144;50.874;4.762;2023-03-01T01:50:54;-0.80;99.90
19966;DHT22;10144;50.874;4.762;2023-03-01T01:53:24;-0.80;99.90
19966;DHT22;10144;50.874;4.762;2023-03-01T01:55:54;-0.80;99.90
19966;DHT22;10144;50.874;4.762;2023-03-01T01:58:41;-0.90;99.90
19966;DHT22;10144;50.874;4.762;2023-03-01T02:01:07;-1.00;99.90
19966;DHT22;10144;50.874;4.762;2023-03-01T02:03:39;-0.90;99.90
19966;DHT22;10144;50.874;4.762;2023-03-01T02:06:21;-0.90;99.90
19966;DHT22;10144;50.874;4.762;2023-03-01T02:08:52;-0.90;99.90
19966;DHT22;10144;50.874;4.762;2023-03-01T02:11:19;-0.80;99.90
19966;DHT22;10144;50.874;4.762;2023-03-01T02:13:44;-0.80;99.90
19966;DHT22;10144;50.874;4.762;2023-03-01T02:16:15;-0.80;99.90
19966;DHT22;10144;50.874;4.762;2023-03-01T02:18:42;-0.80;99.90
19966;DHT22;10144;50.874;4.762;2023-03-01T02:24:03;-0.80;99.90
19966;DHT22;10144;50.874;4.762;2023-03-01T02:26:48;-0.80;99.90
19966;DHT22;10144;50.874;4.762;2023-03-01T02:29:15;-0.80;99.90
19966;DHT22;10144;50.874;4.762;2023-03-01T02:31:41;-0.80;99.90
19966;DHT22;10144;50.874;4.762;2023-03-01T02:34:09;-0.80;99.90
19966;DHT22;10144;50.874;4.762;2023-03-01T02:36:40;-0.90;99.90
19966;DHT22;10144;50.874;4.762;2023-03-01T02:39:12;-0.90;99.90
19966;DHT22;10144;50.874;4.762;2023-03-01T02:41:46;-0.90;99.90
19966;DHT22;10144;50.874;4.762;2023-03-01T02:44:14;-1.00;99.90
19966;DHT22;10144;50.874;4.762;2023-03-01T02:46:53;-1.00;99.90
19966;DHT22;10144;50.874;4.762;2023-03-01T02:49:30;-1.00;99.90
19966;DHT22;10144;50.874;4.762;2023-03-01T02:54:46;-1.00;99.90
19966;DHT22;10144;50.874;4.762;2023-03-01T02:57:12;-1.00;99.90
19966;DHT22;10144;50.874;4.762;2023-03-01T02:59:41;-1.10;99.90
19966;DHT22;10144;50.874;4.762;2023-03-01T03:02:23;-1.20;99.90
19966;DHT22;10144;50.874;4.762;2023-03-01T03:05:03;-1.20;99.90
19966;DHT22;10144;50.874;4.762;2023-03-01T03:07:33;-1.30;99.90
19966;DHT22;10144;50.874;4.762;2023-03-01T03:10:01;-1.20;99.90
19966;DHT22;10144;50.874;4.762;2023-03-01T03:12:30;-1.20;99.90
19966;DHT22;10144;50.874;4.762;2023-03-01T03:14:59;-1.20;99.90
19966;DHT22;10144;50.874;4.762;2023-03-01T03:17:25;-1.20;99.90
19966;DHT22;10144;50.874;4.762;2023-03-01T03:19:53;-1.20;99.90
19966;DHT22;10144;50.874;4.762;2023-03-01T03:22:21;-1.10;99.90
19966;DHT22;10144;50.874;4.762;2023-03-01T03:24:54;-1.10;99.90
19966;DHT22;10144;50.874;4.762;2023-03-01T03:27:23;-1.20;99.90
19966;DHT22;10144;50.874;4.762;2023-03-01T03:29:52;-1.20;99.90
19966;DHT22;10144;50.874;4.762;2023-03-01T03:35:46;-1.10;99.90
19966;DHT22;10144;50.874;4.762;2023-03-01T03:38:22;-1.20;99.90
19966;DHT22;10144;50.874;4.762;2023-03-01T03:41:15;-1.30;99.90
19966;DHT22;10144;50.874;4.762;2023-03-01T03:43:54;-1.40;99.90
19966;DHT22;10144;50.874;4.762;2023-03-01T03:46:23;-1.50;99.90
19966;DHT22;10144;50.874;4.762;2023-03-01T03:48:50;-1.60;99.90
19966;DHT22;10144;50.874;4.762;2023-03-01T03:51:18;-1.60;99.90
19966;DHT22;10144;50.874;4.762;2023-03-01T03:53:45;-1.70;99.90
19966;DHT22;10144;50.874;4.762;2023-03-01T03:56:13;-1.70;99.90
19966;DHT22;10144;50.874;4.762;2023-03-01T03:58:42;-1.70;99.90
19966;DHT22;10144;50.874;4.762;2023-03-01T04:01:09;-1.70;99.90
19966;DHT22;10144;50.874;4.762;2023-03-01T04:03:52;-1.70;99.90
19966;DHT22;10144;50.874;4.762;2023-03-01T04:06:20;-1.70;99.90
19966;DHT22;10144;50.874;4.762;2023-03-01T04:08:46;-1.70;99.90
19966;DHT22;10144;50.874;4.762;2023-03-01T04:11:14;-1.80;99.90
19966;DHT22;10144;50.874;4.762;2023-03-01T04:17:08;-2.00;99.90
19966;DHT22;10144;50.874;4.762;2023-03-01T04:19:40;-2.00;99.90
19966;DHT22;10144;50.874;4.762;2023-03-01T04:22:08;-2.00;99.90
19966;DHT22;10144;50.874;4.762;2023-03-01T04:24:37;-2.00;99.90
19966;DHT22;10144;50.874;4.762;2023-03-01T04:27:06;-2.00;99.90
19966;DHT22;10144;50.874;4.762;2023-03-01T04:29:35;-1.90;99.90
19966;DHT22;10144;50.874;4.762;2023-03-01T04:32:04;-1.90;99.90
19966;DHT22;10144;50.874;4.762;2023-03-01T04:34:33;-1.90;99.90
19966;DHT22;10144;50.874;4.762;2023-03-01T04:37:14;-1.90;99.90
19966;DHT22;10144;50.874;4.762;2023-03-01T04:39:46;-1.90;99.90
19966;DHT22;10144;50.874;4.762;2023-03-01T04:42:19;-1.80;99.90
19966;DHT22;10144;50.874;4.762;2023-03-01T04:44:47;-1.90;99.90
19966;DHT22;10144;50.874;4.762;2023-03-01T04:47:19;-1.90;99.90
19966;DHT22;10144;50.874;4.762;2023-03-01T04:49:48;-1.80;99.90
19966;DHT22;10144;50.874;4.762;2023-03-01T04:52:17;-1.90;99.90
19966;DHT22;10144;50.874;4.762;2023-03-01T04:54:49;-2.00;99.90
19966;DHT22;10144;50.874;4.762;2023-03-01T04:57:14;-2.00;99.90
19966;DHT22;10144;50.874;4.762;2023-03-01T04:59:48;-2.10;99.90
19966;DHT22;10144;50.874;4.762;2023-03-01T05:02:20;-2.10;99.90
19966;DHT22;10144;50.874;4.762;2023-03-01T05:04:47;-2.00;99.90
19966;DHT22;10144;50.874;4.762;2023-03-01T05:07:15;-2.00;99.90
19966;DHT22;10144;50.874;4.762;2023-03-01T05:09:46;-1.90;99.90
19966;DHT22;10144;50.874;4.762;2023-03-01T05:12:23;-1.80;99.90
19966;DHT22;10144;50.874;4.762;2023-03-01T05:14:49;-1.90;99.90
19966;DHT22;10144;50.874;4.762;2023-03-01T05:17:20;-1.90;99.90
19966;DHT22;10144;50.874;4.762;2023-03-01T05:19:51;-1.90;99.90
19966;DHT22;10144;50.874;4.762;2023-03-01T05:22:20;-1.90;99.90
19966;DHT22;10144;50.874;4.762;2023-03-01T05:24:50;-2.00;99.90
19966;DHT22;10144;50.874;4.762;2023-03-01T05:27:19;-1.90;99.90
19966;DHT22;10144;50.874;4.762;2023-03-01T05:29:47;-1.90;99.90
19966;DHT22;10144;50.874;4.762;2023-03-01T05:32:30;-1.90;99.90
19966;DHT22;10144;50.874;4.762;2023-03-01T05:35:00;-1.90;99.90
19966;DHT22;10144;50.874;4.762;2023-03-01T05:37:29;-2.00;99.90
19966;DHT22;10144;50.874;4.762;2023-03-01T05:40:09;-2.10;99.90
19966;DHT22;10144;50.874;4.762;2023-03-01T05:42:52;-2.10;99.90
19966;DHT22;10144;50.874;4.762;2023-03-01T05:45:25;-2.10;99.90
19966;DHT22;10144;50.874;4.762;2023-03-01T05:47:53;-2.10;99.90
19966;DHT22;10144;50.874;4.762;2023-03-01T05:50:23;-2.20;99.90
19966;DHT22;10144;50.874;4.762;2023-03-01T05:53:17;-2.20;99.90
19966;DHT22;10144;50.874;4.762;2023-03-01T05:55:48;-2.40;99.90
19966;DHT22;10144;50.874;4.762;2023-03-01T05:58:22;-2.50;99.90
19966;DHT22;10144;50.874;4.762;2023-03-01T06:00:49;-2.50;99.90
19966;DHT22;10144;50.874;4.762;2023-03-01T06:03:17;-2.40;99.90
19966;DHT22;10144;50.874;4.762;2023-03-01T06:05:48;-2.60;99.90
19966;DHT22;10144;50.874;4.762;2023-03-01T06:08:17;-2.60;99.90
19966;DHT22;10144;50.874;4.762;2023-03-01T06:10:48;-2.50;99.90
19966;DHT22;10144;50.874;4.762;2023-03-01T06:13:14;-2.60;99.90
19966;DHT22;10144;50.874;4.762;2023-03-01T06:15:42;-2.70;99.90
19966;DHT22;10144;50.874;4.762;2023-03-01T06:18:11;-2.70;99.90
19966;DHT22;10144;50.874;4.762;2023-03-01T06:21:01;-2.60;99.90
19966;DHT22;10144;50.874;4.762;2023-03-01T06:23:29;-2.60;99.90
19966;DHT22;10144;50.874;4.762;2023-03-01T06:25:56;-2.60;99.90
19966;DHT22;10144;50.874;4.762;2023-03-01T06:28:25;-2.60;99.90
19966;DHT22;10144;50.874;4.762;2023-03-01T06:30:54;-2.50;99.90
19966;DHT22;10144;50.874;4.762;2023-03-01T06:33:25;-2.50;99.90
19966;DHT22;10144;50.874;4.762;2023-03-01T06:35:55;-2.40;99.90
19966;DHT22;10144;50.874;4.762;2023-03-01T06:38:24;-2.30;99.90
19966;DHT22;10144;50.874;4.762;2023-03-01T06:40:56;-2.30;99.90
19966;DHT22;10144;50.874;4.762;2023-03-01T06:43:28;-2.10;99.90
19966;DHT22;10144;50.874;4.762;2023-03-01T06:45:55;-1.60;99.90
19966;DHT22;10144;50.874;4.762;2023-03-01T06:48:22;-1.00;99.90
19966;DHT22;10144;50.874;4.762;2023-03-01T06:50:51;-0.30;99.90
19966;DHT22;10144;50.874;4.762;2023-03-01T06:53:18;0.20;99.90
19966;DHT22;10144;50.874;4.762;2023-03-01T06:55:47;0.70;99.90
19966;DHT22;10144;50.874;4.762;2023-03-01T06:58:19;1.40;99.90
19966;DHT22;10144;50.874;4.762;2023-03-01T07:00:48;2.00;99.90
19966;DHT22;10144;50.874;4.762;2023-03-01T07:03:17;2.80;99.90
19966;DHT22;10144;50.874;4.762;2023-03-01T07:05:50;3.80;99.90
19966;DHT22;10144;50.874;4.762;2023-03-01T07:08:19;4.70;99.90
19966;DHT22;10144;50.874;4.762;2023-03-01T07:10:46;6.00;99.90
19966;DHT22;10144;50.874;4.762;2023-03-01T07:13:12;6.40;99.90
19966;DHT22;10144;50.874;4.762;2023-03-01T07:15:40;7.50;99.90
19966;DHT22;10144;50.874;4.762;2023-03-01T07:18:09;7.90;99.90
19966;DHT22;10144;50.874;4.762;2023-03-01T07:20:36;8.60;99.90
19966;DHT22;10144;50.874;4.762;2023-03-01T07:23:06;9.20;99.90
19966;DHT22;10144;50.874;4.762;2023-03-01T07:25:34;10.10;99.90
19966;DHT22;10144;50.874;4.762;2023-03-01T07:28:02;10.60;99.90
19966;DHT22;10144;50.874;4.762;2023-03-01T07:30:34;10.80;99.90
19966;DHT22;10144;50.874;4.762;2023-03-01T07:32:59;11.30;99.90
19966;DHT22;10144;50.874;4.762;2023-03-01T07:35:26;11.80;99.90
19966;DHT22;10144;50.874;4.762;2023-03-01T07:37:52;12.50;99.90
19966;DHT22;10144;50.874;4.762;2023-03-01T07:40:25;13.00;99.90
19966;DHT22;10144;50.874;4.762;2023-03-01T07:42:55;13.60;99.90
19966;DHT22;10144;50.874;4.762;2023-03-01T07:45:32;13.70;99.90
19966;DHT22;10144;50.874;4.762;2023-03-01T07:47:58;13.40;99.90
19966;DHT22;10144;50.874;4.762;2023-03-01T07:50:25;13.20;99.90
19966;DHT22;10144;50.874;4.762;2023-03-01T07:52:50;12.90;99.90
19966;DHT22;10144;50.874;4.762;2023-03-01T07:55:17;13.70;99.90
19966;DHT22;10144;50.874;4.762;2023-03-01T07:57:42;14.20;98.90
19966;DHT22;10144;50.874;4.762;2023-03-01T08:00:10;14.50;97.80
19966;DHT22;10144;50.874;4.762;2023-03-01T08:02:37;14.50;97.00
19966;DHT22;10144;50.874;4.762;2023-03-01T08:05:04;15.00;96.40
19966;DHT22;10144;50.874;4.762;2023-03-01T08:07:29;15.30;95.70
19966;DHT22;10144;50.874;4.762;2023-03-01T08:09:55;16.60;93.40
19966;DHT22;10144;50.874;4.762;2023-03-01T08:12:20;17.40;90.80
19966;DHT22;10144;50.874;4.762;2023-03-01T08:14:46;17.40;90.60
19966;DHT22;10144;50.874;4.762;2023-03-01T08:17:14;17.60;88.30
19966;DHT22;10144;50.874;4.762;2023-03-01T08:19:39;18.10;84.80
19966;DHT22;10144;50.874;4.762;2023-03-01T08:22:05;18.10;84.30
19966;DHT22;10144;50.874;4.762;2023-03-01T08:24:31;18.90;80.90
19966;DHT22;10144;50.874;4.762;2023-03-01T08:26:56;18.50;80.50
19966;DHT22;10144;50.874;4.762;2023-03-01T08:29:22;18.00;80.20
19966;DHT22;10144;50.874;4.762;2023-03-01T08:31:50;18.60;79.50
19966;DHT22;10144;50.874;4.762;2023-03-01T08:34:17;18.20;78.50
19966;DHT22;10144;50.874;4.762;2023-03-01T08:36:45;18.60;77.70
19966;DHT22;10144;50.874;4.762;2023-03-01T08:39:14;18.90;76.80
19966;DHT22;10144;50.874;4.762;2023-03-01T08:41:40;19.50;76.00
19966;DHT22;10144;50.874;4.762;2023-03-01T08:44:07;18.70;76.10
19966;DHT22;10144;50.874;4.762;2023-03-01T08:46:35;17.90;75.30
19966;DHT22;10144;50.874;4.762;2023-03-01T08:49:07;17.70;77.10
19966;DHT22;10144;50.874;4.762;2023-03-01T08:51:33;17.00;77.80
19966;DHT22;10144;50.874;4.762;2023-03-01T08:54:03;17.80;77.30
19966;DHT22;10144;50.874;4.762;2023-03-01T08:56:30;18.50;74.40
19966;DHT22;10144;50.874;4.762;2023-03-01T08:58:56;18.30;74.00
19966;DHT22;10144;50.874;4.762;2023-03-01T09:01:22;18.30;74.60
19966;DHT22;10144;50.874;4.762;2023-03-01T09:03:47;17.70;75.30
19966;DHT22;10144;50.874;4.762;2023-03-01T09:06:14;17.70;74.80
19966;DHT22;10144;50.874;4.762;2023-03-01T09:08:46;16.80;75.70
19966;DHT22;10144;50.874;4.762;2023-03-01T09:11:16;17.80;75.60
19966;DHT22;10144;50.874;4.762;2023-03-01T09:13:44;17.70;74.70
19966;DHT22;10144;50.874;4.762;2023-03-01T09:16:19;17.00;77.70
19966;DHT22;10144;50.874;4.762;2023-03-01T09:18:49;16.30;78.20
19966;DHT22;10144;50.874;4.762;2023-03-01T09:21:16;16.30;80.00
19966;DHT22;10144;50.874;4.762;2023-03-01T09:23:44;18.20;77.50
19966;DHT22;10144;50.874;4.762;2023-03-01T09:26:19;19.50;74.30
19966;DHT22;10144;50.874;4.762;2023-03-01T09:28:47;19.90;71.10
19966;DHT22;10144;50.874;4.762;2023-03-01T09:31:14;19.70;71.10
19966;DHT22;10144;50.874;4.762;2023-03-01T09:33:40;20.10;69.50
19966;DHT22;10144;50.874;4.762;2023-03-01T09:36:11;20.30;70.20
19966;DHT22;10144;50.874;4.762;2023-03-01T09:38:37;20.70;67.50
19966;DHT22;10144;50.874;4.762;2023-03-01T09:41:22;19.30;69.10
19966;DHT22;10144;50.874;4.762;2023-03-01T09:43:55;20.10;68.70
19966;DHT22;10144;50.874;4.762;2023-03-01T09:46:24;17.70;70.50
19966;DHT22;10144;50.874;4.762;2023-03-01T09:48:56;17.50;72.40
19966;DHT22;10144;50.874;4.762;2023-03-01T09:51:30;18.50;70.30
19966;DHT22;10144;50.874;4.762;2023-03-01T09:53:56;19.20;69.40
19966;DHT22;10144;50.874;4.762;2023-03-01T10:10:39;13.60;81.80
19966;DHT22;10144;50.874;4.762;2023-03-01T10:15:49;9.90;94.50
19966;DHT22;10144;50.874;4.762;2023-03-01T10:18:22;9.20;97.40
19966;DHT22;10144;50.874;4.762;2023-03-01T10:20:56;7.80;99.90
19966;DHT22;10144;50.874;4.762;2023-03-01T10:23:24;7.90;99.90
19966;DHT22;10144;50.874;4.762;2023-03-01T10:26:07;9.00;99.90
19966;DHT22;10144;50.874;4.762;2023-03-01T10:31:19;13.40;91.00
19966;DHT22;10144;50.874;4.762;2023-03-01T10:33:45;14.40;86.80
19966;DHT22;10144;50.874;4.762;2023-03-01T10:36:13;12.00;91.90
19966;DHT22;10144;50.874;4.762;2023-03-01T10:38:51;12.60;91.10
19966;DHT22;10144;50.874;4.762;2023-03-01T10:41:19;12.70;90.30
19966;DHT22;10144;50.874;4.762;2023-03-01T10:43:51;12.80;89.00
19966;DHT22;10144;50.874;4.762;2023-03-01T10:51:33;11.60;91.90
19966;DHT22;10144;50.874;4.762;2023-03-01T10:53:59;10.90;93.70
19966;DHT22;10144;50.874;4.762;2023-03-01T10:56:25;10.30;95.10
19966;DHT22;10144;50.874;4.762;2023-03-01T10:59:05;10.70;97.20
19966;DHT22;10144;50.874;4.762;2023-03-01T11:01:33;12.90;92.10
19966;DHT22;10144;50.874;4.762;2023-03-01T11:06:32;14.00;86.80
19966;DHT22;10144;50.874;4.762;2023-03-01T11:09:17;15.20;83.70
19966;DHT22;10144;50.874;4.762;2023-03-01T11:11:44;16.30;79.20
19966;DHT22;10144;50.874;4.762;2023-03-01T11:14:26;15.70;77.10
19966;DHT22;10144;50.874;4.762;2023-03-01T11:17:21;15.90;78.10
19966;DHT22;10144;50.874;4.762;2023-03-01T11:20:21;15.00;77.40
19966;DHT22;10144;50.874;4.762;2023-03-01T11:23:30;14.40;80.50
19966;DHT22;10144;50.874;4.762;2023-03-01T11:25:55;12.70;84.70
19966;DHT22;10144;50.874;4.762;2023-03-01T11:28:22;13.30;91.20
19966;DHT22;10144;50.874;4.762;2023-03-01T11:38:46;16.50;75.60
19966;DHT22;10144;50.874;4.762;2023-03-01T11:41:18;16.00;74.90
19966;DHT22;10144;50.874;4.762;2023-03-01T11:46:40;14.40;79.00
19966;DHT22;10144;50.874;4.762;2023-03-01T11:57:33;15.70;75.20
19966;DHT22;10144;50.874;4.762;2023-03-01T12:00:23;16.30;73.20
19966;DHT22;10144;50.874;4.762;2023-03-01T12:11:51;15.30;74.60
19966;DHT22;10144;50.874;4.762;2023-03-01T12:28:58;10.70;91.60
19966;DHT22;10144;50.874;4.762;2023-03-01T12:31:57;11.10;89.30
19966;DHT22;10144;50.874;4.762;2023-03-01T12:51:30;13.70;78.40
19966;DHT22;10144;50.874;4.762;2023-03-01T12:53:59;13.60;80.80
19966;DHT22;10144;50.874;4.762;2023-03-01T12:56:30;13.80;80.30
19966;DHT22;10144;50.874;4.762;2023-03-01T13:02:02;13.20;79.40
19966;DHT22;10144;50.874;4.762;2023-03-01T13:07:47;14.30;79.20
19966;DHT22;10144;50.874;4.762;2023-03-01T13:15:37;12.50;80.40
19966;DHT22;10144;50.874;4.762;2023-03-01T13:20:55;12.20;83.80
19966;DHT22;10144;50.874;4.762;2023-03-01T13:31:01;10.20;91.50
19966;DHT22;10144;50.874;4.762;2023-03-01T13:35:53;11.50;90.40
19966;DHT22;10144;50.874;4.762;2023-03-01T13:41:07;10.80;91.30
19966;DHT22;10144;50.874;4.762;2023-03-01T13:43:35;10.20;92.70
19966;DHT22;10144;50.874;4.762;2023-03-01T13:46:28;9.50;93.80
19966;DHT22;10144;50.874;4.762;2023-03-01T13:48:56;8.90;96.50
19966;DHT22;10144;50.874;4.762;2023-03-01T13:51:27;8.20;99.90
19966;DHT22;10144;50.874;4.762;2023-03-01T13:53:54;7.70;99.50
19966;DHT22;10144;50.874;4.762;2023-03-01T13:56:33;7.60;99.90
19966;DHT22;10144;50.874;4.762;2023-03-01T13:59:16;7.20;99.90
19966;DHT22;10144;50.874;4.762;2023-03-01T14:01:42;7.10;99.90
19966;DHT22;10144;50.874;4.762;2023-03-01T14:04:27;7.20;99.90
19966;DHT22;10144;50.874;4.762;2023-03-01T14:07:19;7.10;99.90
19966;DHT22;10144;50.874;4.762;2023-03-01T14:09:48;6.60;99.90
19966;DHT22;10144;50.874;4.762;2023-03-01T14:14:55;6.60;99.90
19966;DHT22;10144;50.874;4.762;2023-03-01T14:20:02;6.60;99.90
19966;DHT22;10144;50.874;4.762;2023-03-01T14:22:34;6.70;99.90
19966;DHT22;10144;50.874;4.762;2023-03-01T14:25:02;7.00;99.90
19966;DHT22;10144;50.874;4.762;2023-03-01T14:27:38;6.80;99.90
19966;DHT22;10144;50.874;4.762;2023-03-01T14:30:35;6.80;99.90
19966;DHT22;10144;50.874;4.762;2023-03-01T14:33:05;6.60;99.90
19966;DHT22;10144;50.874;4.762;2023-03-01T14:35:34;6.70;99.90
19966;DHT22;10144;50.874;4.762;2023-03-01T14:38:01;6.70;99.90
19966;DHT22;10144;50.874;4.762;2023-03-01T14:40:27;6.80;99.90
19966;DHT22;10144;50.874;4.762;2023-03-01T14:42:55;6.70;99.90
19966;DHT22;10144;50.874;4.762;2023-03-01T14:45:23;7.00;99.90
19966;DHT22;10144;50.874;4.762;2023-03-01T14:47:50;7.10;99.90
19966;DHT22;10144;50.874;4.762;2023-03-01T14:50:24;7.10;99.90
19966;DHT22;10144;50.874;4.762;2023-03-01T14:52:53;7.00;99.90
19966;DHT22;10144;50.874;4.762;2023-03-01T14:55:26;6.90;99.90
19966;DHT22;10144;50.874;4.762;2023-03-01T14:57:56;6.80;99.90
19966;DHT22;10144;50.874;4.762;2023-03-01T15:00:27;6.70;99.90
19966;DHT22;10144;50.874;4.762;2023-03-01T15:02:55;6.50;99.90
19966;DHT22;10144;50.874;4.762;2023-03-01T15:05:32;6.50;99.90
19966;DHT22;10144;50.874;4.762;2023-03-01T15:08:00;6.50;99.90
19966;DHT22;10144;50.874;4.762;2023-03-01T15:10:29;6.50;99.90
19966;DHT22;10144;50.874;4.762;2023-03-01T15:12:56;6.40;99.90
19966;DHT22;10144;50.874;4.762;2023-03-01T15:18:17;6.50;99.90
19966;DHT22;10144;50.874;4.762;2023-03-01T15:20:43;6.50;99.90
19966;DHT22;10144;50.874;4.762;2023-03-01T15:23:28;6.50;99.90
19966;DHT22;10144;50.874;4.762;2023-03-01T15:25:56;6.40;99.90
19966;DHT22;10144;50.874;4.762;2023-03-01T15:28:49;6.30;99.90
19966;DHT22;10144;50.874;4.762;2023-03-01T15:31:22;6.30;99.90
19966;DHT22;10144;50.874;4.762;2023-03-01T15:33:48;6.30;99.90
19966;DHT22;10144;50.874;4.762;2023-03-01T15:36:41;6.20;99.90
19966;DHT22;10144;50.874;4.762;2023-03-01T15:39:31;6.20;99.90
19966;DHT22;10144;50.874;4.762;2023-03-01T15:41:58;6.30;99.90
19966;DHT22;10144;50.874;4.762;2023-03-01T15:44:29;6.20;99.90
19966;DHT22;10144;50.874;4.762;2023-03-01T15:46:55;6.30;99.90
19966;DHT22;10144;50.874;4.762;2023-03-01T15:49:39;6.30;99.90
19966;DHT22;10144;50.874;4.762;2023-03-01T15:52:11;6.20;99.90
19966;DHT22;10144;50.874;4.762;2023-03-01T15:54:39;6.00;99.90
19966;DHT22;10144;50.874;4.762;2023-03-01T15:57:10;5.80;99.90
19966;DHT22;10144;50.874;4.762;2023-03-01T15:59:37;5.80;99.90
19966;DHT22;10144;50.874;4.762;2023-03-01T16:02:09;5.90;99.90
19966;DHT22;10144;50.874;4.762;2023-03-01T16:04:34;5.90;99.90
19966;DHT22;10144;50.874;4.762;2023-03-01T16:07:00;5.90;99.90
19966;DHT22;10144;50.874;4.762;2023-03-01T16:09:26;5.80;99.90
19966;DHT22;10144;50.874;4.762;2023-03-01T16:11:53;5.80;99.90
19966;DHT22;10144;50.874;4.762;2023-03-01T16:14:19;5.70;99.90
19966;DHT22;10144;50.874;4.762;2023-03-01T16:16:46;5.70;99.90
19966;DHT22;10144;50.874;4.762;2023-03-01T16:19:14;5.60;99.90
19966;DHT22;10144;50.874;4.762;2023-03-01T16:21:40;5.60;99.90
19966;DHT22;10144;50.874;4.762;2023-03-01T16:24:07;5.60;99.90
19966;DHT22;10144;50.874;4.762;2023-03-01T16:26:33;5.50;99.90
19966;DHT22;10144;50.874;4.762;2023-03-01T16:28:58;5.50;99.90
19966;DHT22;10144;50.874;4.762;2023-03-01T16:31:25;5.50;99.90
19966;DHT22;10144;50.874;4.762;2023-03-01T16:33:55;5.40;99.90
19966;DHT22;10144;50.874;4.762;2023-03-01T16:36:23;5.40;99.90
19966;DHT22;10144;50.874;4.762;2023-03-01T16:38:50;5.40;99.90
19966;DHT22;10144;50.874;4.762;2023-03-01T16:41:18;5.40;99.90
19966;DHT22;10144;50.874;4.762;2023-03-01T16:43:43;5.40;99.90
19966;DHT22;10144;50.874;4.762;2023-03-01T16:46:11;5.30;99.90
19966;DHT22;10144;50.874;4.762;2023-03-01T16:48:37;5.30;99.90
19966;DHT22;10144;50.874;4.762;2023-03-01T16:51:03;5.20;99.90
19966;DHT22;10144;50.874;4.762;2023-03-01T16:53:29;5.10;99.90
19966;DHT22;10144;50.874;4.762;2023-03-01T16:55:56;5.00;99.90
19966;DHT22;10144;50.874;4.762;2023-03-01T16:58:22;5.00;99.90
19966;DHT22;10144;50.874;4.762;2023-03-01T17:00:51;5.00;99.90
19966;DHT22;10144;50.874;4.762;2023-03-01T17:03:16;4.90;99.90
19966;DHT22;10144;50.874;4.762;2023-03-01T17:05:42;4.90;99.90
19966;DHT22;10144;50.874;4.762;2023-03-01T17:08:08;4.80;99.90
19966;DHT22;10144;50.874;4.762;2023-03-01T17:10:33;4.80;99.90
19966;DHT22;10144;50.874;4.762;2023-03-01T17:12:59;4.70;99.90
19966;DHT22;10144;50.874;4.762;2023-03-01T17:15:25;4.60;99.90
19966;DHT22;10144;50.874;4.762;2023-03-01T17:17:50;4.60;99.90
19966;DHT22;10144;50.874;4.762;2023-03-01T17:20:16;4.50;99.90
19966;DHT22;10144;50.874;4.762;2023-03-01T17:22:42;4.50;99.90
19966;DHT22;10144;50.874;4.762;2023-03-01T17:25:09;4.40;99.90
19966;DHT22;10144;50.874;4.762;2023-03-01T17:27:36;4.40;99.90
19966;DHT22;10144;50.874;4.762;2023-03-01T17:30:03;4.30;99.90
19966;DHT22;10144;50.874;4.762;2023-03-01T17:32:30;4.30;99.90
19966;DHT22;10144;50.874;4.762;2023-03-01T17:34:55;4.20;99.90
19966;DHT22;10144;50.874;4.762;2023-03-01T17:37:21;4.20;99.90
19966;DHT22;10144;50.874;4.762;2023-03-01T17:39:47;4.10;99.90
19966;DHT22;10144;50.874;4.762;2023-03-01T17:42:12;4.10;99.90
19966;DHT22;10144;50.874;4.762;2023-03-01T17:44:38;4.10;99.90
19966;DHT22;10144;50.874;4.762;2023-03-01T17:47:05;4.00;99.90
19966;DHT22;10144;50.874;4.762;2023-03-01T17:49:31;4.00;99.90
19966;DHT22;10144;50.874;4.762;2023-03-01T17:51:58;3.90;99.90
19966;DHT22;10144;50.874;4.762;2023-03-01T17:54:23;3.80;99.90
19966;DHT22;10144;50.874;4.762;2023-03-01T17:56:50;3.80;99.90
19966;DHT22;10144;50.874;4.762;2023-03-01T17:59:18;3.80;99.90
19966;DHT22;10144;50.874;4.762;2023-03-01T18:01:45;3.80;99.90
19966;DHT22;10144;50.874;4.762;2023-03-01T18:04:10;3.80;99.90
19966;DHT22;10144;50.874;4.762;2023-03-01T18:06:38;3.80;99.90
19966;DHT22;10144;50.874;4.762;2023-03-01T18:09:08;3.70;99.90
19966;DHT22;10144;50.874;4.762;2023-03-01T18:11:35;3.70;99.90
19966;DHT22;10144;50.874;4.762;2023-03-01T18:14:01;3.60;99.90